In Rescue
 
Open Full Screen Window  High Contrast Mode
Wind Gusting 18 knots
14
May 25, 2022 10:57 PM EDT
Present Weather: Light Rain
Weather Information
Wind Direction
  140 °
Wind Speed
  14 kt (16 mph)
Wind Gust
  18 kt (21 mph)
Altimeter
29.89 in
Visibility
10 SM
Temperature
19° C
66° F
Dewpoint
19° C
66° F
Humidity
100%
1hr Rain Fall
00.02 in.
24hr Rain Fall
00.37 in.
Sky Condition
Overcast @ 11,000 ft
Broken @ 8,000 ft
Scattered @ 2,700 ft
VFR

METAR KY70 260257Z AUTO 14014G18KT 10SM -RA SCT027 BKN080 OVC110 19/19 A2989 RMK AO2 60002 T01930189 P0002

FAA Disclaimer: The data displayed is for advisory purposes only and is not to be used for flight planning or operations.